Pagrindinis puslapis
METAR-TAF:

METAR-TAF

Oro uostai :

Svolvær, Norvegija

platuma: 68-15N, ilguma: 014-40E, Aukštis: 0 m

Dabartinis oras

Ataskaita buvo paskelbta 34 minutes, ne 11:50 UTC
Vėjas 6 kt iš Pietų
Temperatūra 14°C
Drėgmė 72%
Slėgis 1027 hPa
Matomumas 10 km arba daugiau
nėra debesų žemiau 1500 m ir nėra kamuolinių lietaus debesų

METAR: ENSH 011150Z 19006KT CAVOK 14/09 Q1027 RMK WIND 150FT 16007KT

Laikas: 14:24 (12:24 UTC)


TAF: trūkstamas

Orai ataskaitas ir orų prognozės (METAR, TAF).

turimą stotys yra geltonos ir raudonos taškus žemėlapyje.

Perkelti pele per norėdami pamatyti stoties vardą.

Tada spustelėkite, norėdami matyti oro stebėjimo ir prognozės.

Norėdami pakeisti žemėlapį: spustelėkite ant žalios mygtukų su juodo kryžiaus žemyn,; žalią mygtuką su brūkšneliu, jei norite nutolinti; arba žalių rodyklių gretimoms žemėlapius.


METAR-TAF: